Time;durP1;ratioP1;P1;durP2;ratioP2;P2;SDS_P1;SDS_P2;PMS_P1;PMS_P2;Temp;Humidity;BMP_temperature;BMP_pressure;BME280_temperature;BME280_humidity;BME280_pressure;Samples;Min_cycle;Max_cycle;Signal;HPM_P1;HPM_P2
2024/02/04 00:01:36;;;;;;;0.98;0.77;;;;;;;9.85;100.00;101328.53;5035345;28;20052;-71
2024/02/04 00:04:04;;;;;;;0.50;0.50;;;;;;;9.85;100.00;101318.81;5028628;28;20159;-71
2024/02/04 00:06:35;;;;;;;0.82;0.50;;;;;;;9.90;100.00;101317.81;5036951;28;20048;-72
2024/02/04 00:09:04;;;;;;;0.75;0.60;;;;;;;9.80;100.00;101320.72;5054374;28;20044;-70
2024/02/04 00:11:32;;;;;;;0.50;0.50;;;;;;;9.76;100.00;101316.41;5021930;28;20045;-71
2024/02/04 00:14:02;;;;;;;0.70;0.50;;;;;;;9.82;100.00;101313.59;5033176;28;20240;-73
2024/02/04 00:16:30;;;;;;;0.50;0.50;;;;;;;9.83;100.00;101310.06;5049434;28;20037;-71
2024/02/04 00:18:59;;;;;;;1.58;0.70;;;;;;;9.75;100.00;101312.06;5034021;28;20045;-71
2024/02/04 00:21:30;;;;;;;0.57;0.57;;;;;;;9.81;100.00;101316.28;5016116;28;20448;-72
2024/02/04 00:24:02;;;;;;;0.60;0.50;;;;;;;9.78;100.00;101313.72;5029209;28;20053;-72
2024/02/04 00:26:29;;;;;;;;;;;;;;;9.80;100.00;101302.19;5023471;28;20080;-73
2024/02/04 00:28:58;;;;;;;1.33;0.63;;;;;;;9.78;100.00;101303.16;5023447;28;19935;-70
2024/02/04 00:31:30;;;;;;;0.63;0.50;;;;;;;9.69;100.00;101306.94;5022294;28;20049;-70
2024/02/04 00:34:00;;;;;;;1.17;0.70;;;;;;;9.67;100.00;101308.75;5019930;28;20041;-70
2024/02/04 00:36:28;;;;;;;0.50;0.50;;;;;;;9.67;100.00;101313.19;5012144;28;20098;-72
2024/02/04 00:38:59;;;;;;;1.13;0.60;;;;;;;9.62;100.00;101299.22;5023627;28;20048;-72
2024/02/04 00:41:28;;;;;;;1.55;0.98;;;;;;;9.68;100.00;101285.84;5010346;28;20108;-72
2024/02/04 00:43:55;;;;;;;0.60;0.60;;;;;;;9.74;100.00;101290.97;5020621;28;20064;-72
2024/02/04 00:46:24;;;;;;;0.80;0.60;;;;;;;9.74;100.00;101291.81;5041300;28;20052;-74
2024/02/04 00:48:56;;;;;;;0.70;0.70;;;;;;;9.68;100.00;101299.91;5024644;28;20061;-71
2024/02/04 00:51:25;;;;;;;0.70;0.70;;;;;;;9.69;100.00;101291.06;5012907;28;20041;-72
2024/02/04 00:53:53;;;;;;;1.23;0.60;;;;;;;9.73;100.00;101291.88;5015029;28;20057;-72
2024/02/04 00:56:24;;;;;;;0.50;0.50;;;;;;;9.68;100.00;101289.34;5016318;28;20073;-71
2024/02/04 00:58:52;;;;;;;0.60;0.60;;;;;;;9.67;100.00;101297.31;5024182;28;20065;-70
2024/02/04 01:01:24;;;;;;;0.75;0.60;;;;;;;9.62;100.00;101296.56;5042313;28;20781;-77
2024/02/04 01:03:54;;;;;;;0.73;0.73;;;;;;;9.64;100.00;101305.34;5007489;28;20049;-71
2024/02/04 01:06:22;;;;;;;0.90;0.60;;;;;;;9.40;100.00;101259.31;5014887;28;20117;-72
2024/02/04 01:08:51;;;;;;;0.52;0.50;;;;;;;9.62;100.00;101296.56;5028571;28;20073;-72
2024/02/04 01:11:19;;;;;;;1.73;0.60;;;;;;;9.57;100.00;101294.09;5047491;28;20310;-71
2024/02/04 01:13:51;;;;;;;0.50;0.50;;;;;;;9.56;100.00;101292.34;5026959;28;20591;-72
2024/02/04 01:16:20;;;;;;;0.50;0.50;;;;;;;9.59;100.00;101294.03;5006506;28;20045;-72
2024/02/04 01:18:49;;;;;;;0.75;0.52;;;;;;;9.55;100.00;101287.09;5028379;28;20063;-71
2024/02/04 01:21:22;;;;;;;0.60;0.60;;;;;;;9.59;100.00;101283.47;5028009;28;20157;-71
2024/02/04 01:23:50;;;;;;;1.17;0.70;;;;;;;9.60;100.00;101293.97;5038032;28;20129;-71
2024/02/04 01:26:20;;;;;;;1.27;0.50;;;;;;;9.61;100.00;101292.19;5022828;28;20045;-71
2024/02/04 01:28:50;;;;;;;0.60;0.60;;;;;;;9.60;100.00;101293.13;5053720;28;20459;-74
2024/02/04 01:31:20;;;;;;;0.35;0.35;;;;;;;9.58;100.00;101297.59;5036027;28;20053;-75
2024/02/04 01:33:49;;;;;;;;;;;;;;;9.58;100.00;101308.19;5026118;28;20103;-75
2024/02/04 01:36:17;;;;;;;0.80;0.45;;;;;;;9.52;100.00;101300.41;5029344;28;19931;-75
2024/02/04 01:38:47;;;;;;;1.13;0.70;;;;;;;9.60;100.00;101301.06;5035342;28;20115;-75
2024/02/04 01:41:15;;;;;;;0.43;0.43;;;;;;;9.50;100.00;101288.09;5030922;28;20033;-75
2024/02/04 01:43:44;;;;;;;0.68;0.60;;;;;;;9.60;100.00;101309.84;5024017;28;20045;-73
2024/02/04 01:46:17;;;;;;;0.30;0.30;;;;;;;9.63;100.00;101301.81;5031974;28;20064;-73
2024/02/04 01:48:45;;;;;;;0.50;0.50;;;;;;;9.55;100.00;101297.69;5030153;28;20041;-75
2024/02/04 01:51:15;;;;;;;0.40;0.40;;;;;;;9.56;100.00;101304.69;5020540;28;20690;-73
2024/02/04 01:53:47;;;;;;;0.55;0.47;;;;;;;9.45;100.00;101308.50;5023764;28;20087;-72
2024/02/04 01:56:15;;;;;;;0.63;0.40;;;;;;;9.48;100.00;101313.69;5007026;28;20049;-73
2024/02/04 01:58:45;;;;;;;1.30;0.40;;;;;;;9.45;100.00;101312.91;5012227;28;20488;-73
2024/02/04 02:01:14;;;;;;;0.52;0.40;;;;;;;9.42;100.00;101307.72;5027112;28;20091;-72
2024/02/04 02:03:44;;;;;;;1.58;0.40;;;;;;;9.39;100.00;101311.31;5020641;28;20125;-74
2024/02/04 02:06:13;;;;;;;0.40;0.40;;;;;;;9.37;100.00;101310.50;5016675;28;20045;-76
2024/02/04 02:08:43;;;;;;;0.40;0.40;;;;;;;9.31;100.00;101317.72;5020540;28;20044;-74
2024/02/04 02:11:19;;;;;;;0.98;0.47;;;;;;;9.23;100.00;101302.06;5020288;28;20043;-77
2024/02/04 02:13:53;;;;;;;0.68;0.50;;;;;;;9.23;100.00;101301.22;5027804;28;20140;-77
2024/02/04 02:16:27;;;;;;;0.80;0.40;;;;;;;9.25;100.00;101291.47;5018698;28;20037;-79
2024/02/04 02:19:04;;;;;;;2.15;0.50;;;;;;;9.18;100.00;101290.75;5020783;28;20041;-73
2024/02/04 02:21:45;;;;;;;0.47;0.47;;;;;;;9.20;100.00;101296.00;5023647;28;20572;-74
2024/02/04 02:24:21;;;;;;;1.58;0.60;;;;;;;9.15;100.00;101294.34;5023618;28;20533;-74
2024/02/04 02:26:53;;;;;;;0.95;0.50;;;;;;;9.10;100.00;101277.75;5032839;28;20041;-75
2024/02/04 02:29:21;;;;;;;0.60;0.60;;;;;;;8.87;100.00;101251.06;5031466;28;20055;-77
2024/02/04 02:31:49;;;;;;;0.80;0.70;;;;;;;8.95;100.00;101274.66;5014606;28;20095;-79
2024/02/04 02:34:18;;;;;;;0.95;0.60;;;;;;;8.91;100.00;101279.16;5028080;28;20059;-74
2024/02/04 02:37:14;;;;;;;0.80;0.60;;;;;;;8.83;100.00;101270.53;5009242;28;20041;-75
2024/02/04 02:39:49;;;;;;;1.40;0.82;;;;;;;8.75;100.00;101278.69;5028921;28;20529;-75
2024/02/04 02:42:33;;;;;;;1.40;0.82;;;;;;;8.72;100.00;101278.75;5024340;28;20150;-75
2024/02/04 02:45:03;;;;;;;0.88;0.70;;;;;;;8.74;100.00;101276.94;5013107;28;20164;-74
2024/02/04 02:47:35;;;;;;;2.53;0.75;;;;;;;8.70;100.00;101266.47;5002227;28;20128;-75
2024/02/04 02:50:03;;;;;;;0.68;0.68;;;;;;;8.70;100.00;101262.06;5046698;28;20045;-75
2024/02/04 02:52:35;;;;;;;1.30;0.73;;;;;;;8.65;100.00;101255.19;5028021;28;20087;-75
2024/02/04 02:55:04;;;;;;;2.47;0.90;;;;;;;8.68;100.00;101257.72;5050465;28;20658;-76
2024/02/04 02:57:37;;;;;;;0.93;0.90;;;;;;;8.62;100.00;101227.09;5038991;28;20045;-76
2024/02/04 03:00:09;;;;;;;0.88;0.88;;;;;;;8.73;100.00;101247.94;5047373;28;20521;-78
2024/02/04 03:02:37;;;;;;;2.72;0.80;;;;;;;8.71;100.00;101239.19;5022946;28;20505;-74
2024/02/04 03:05:11;;;;;;;1.17;0.80;;;;;;;8.76;100.00;101246.09;5029483;28;20033;-75
2024/02/04 03:07:39;;;;;;;1.27;0.90;;;;;;;8.81;100.00;101240.69;5028444;28;20417;-75
2024/02/04 03:10:08;;;;;;;0.80;0.80;;;;;;;8.73;100.00;101235.59;5015369;28;20045;-74
2024/02/04 03:12:38;;;;;;;0.90;0.90;;;;;;;8.76;100.00;101229.38;5042630;28;20040;-75
2024/02/04 03:15:07;;;;;;;1.00;0.90;;;;;;;8.65;100.00;101218.22;5029493;28;20049;-74
2024/02/04 03:17:35;;;;;;;2.17;1.08;;;;;;;8.74;100.00;101242.59;5018892;28;20144;-77
2024/02/04 03:20:07;;;;;;;1.17;1.08;;;;;;;8.71;100.00;101250.59;5002549;28;20378;-74
2024/02/04 03:22:37;;;;;;;1.45;1.27;;;;;;;8.71;100.00;101253.25;5023018;28;20104;-76
2024/02/04 03:25:09;;;;;;;1.08;0.98;;;;;;;8.70;100.00;101246.22;5037403;28;20053;-75
2024/02/04 03:27:40;;;;;;;3.00;1.10;;;;;;;8.72;100.00;101241.78;5024089;28;20033;-75
2024/02/04 03:30:13;;;;;;;1.02;1.00;;;;;;;8.74;100.00;101252.31;5010736;28;20511;-74
2024/02/04 03:32:43;;;;;;;2.65;1.27;;;;;;;8.81;100.00;101250.38;5017570;28;20493;-75
2024/02/04 03:35:14;;;;;;;1.10;1.02;;;;;;;8.78;100.00;101252.19;5045907;28;20053;-77
2024/02/04 03:37:44;;;;;;;1.67;1.08;;;;;;;8.84;100.00;101247.63;5011688;28;20139;-76
2024/02/04 03:40:15;;;;;;;1.88;1.45;;;;;;;8.75;100.00;101240.84;5051892;28;20045;-75
2024/02/04 03:42:45;;;;;;;1.25;1.15;;;;;;;8.70;100.00;101235.66;5034222;28;20033;-75
2024/02/04 03:45:14;;;;;;;1.20;1.10;;;;;;;8.59;100.00;101223.66;5027354;28;20075;-77
2024/02/04 03:47:45;;;;;;;1.38;1.27;;;;;;;8.62;100.00;101228.88;5031784;28;20541;-76
2024/02/04 03:50:13;;;;;;;;;;;;;;;8.62;100.00;101232.38;5028241;28;20045;-75
2024/02/04 03:52:48;;;;;;;1.40;1.30;;;;;;;8.65;100.00;101240.22;5033931;28;19920;-76
2024/02/04 03:55:16;;;;;;;3.05;1.23;;;;;;;8.66;100.00;101236.66;5018124;28;20421;-79
2024/02/04 03:57:48;;;;;;;1.23;1.13;;;;;;;8.35;100.00;101181.13;5025871;28;20049;-76
2024/02/04 04:00:20;;;;;;;2.45;1.20;;;;;;;8.71;100.00;101229.47;5026605;28;20418;-75
2024/02/04 04:02:50;;;;;;;3.88;1.40;;;;;;;8.72;100.00;101225.94;5027022;28;20056;-75
2024/02/04 04:05:19;;;;;;;1.85;1.10;;;;;;;8.73;100.00;101221.53;5010364;28;20041;-77
2024/02/04 04:07:47;;;;;;;1.75;1.00;;;;;;;8.74;100.00;101232.03;5040722;28;20052;-75
2024/02/04 04:10:16;;;;;;;0.95;0.93;;;;;;;8.65;100.00;101227.03;5026177;28;20083;-74
2024/02/04 04:12:50;;;;;;;2.75;1.10;;;;;;;8.63;100.00;101225.31;5028735;28;20126;-74
2024/02/04 04:15:18;;;;;;;2.35;1.10;;;;;;;8.72;100.00;101228.56;5020903;28;20049;-76
2024/02/04 04:17:49;;;;;;;1.20;1.10;;;;;;;8.70;100.00;101226.88;5021486;28;20524;-75
2024/02/04 04:20:17;;;;;;;1.67;1.40;;;;;;;8.49;100.00;101204.56;5029828;28;20152;-75
2024/02/04 04:22:47;;;;;;;1.08;0.80;;;;;;;8.55;100.00;101201.75;5024532;28;20045;-76
2024/02/04 04:25:17;;;;;;;2.47;1.00;;;;;;;8.59;100.00;101203.41;5028225;28;20052;-75
2024/02/04 04:27:47;;;;;;;1.10;0.98;;;;;;;8.73;100.00;101230.31;5001143;28;20108;-77
2024/02/04 04:30:16;;;;;;;1.20;0.93;;;;;;;8.74;100.00;101229.41;5027114;28;20037;-76
2024/02/04 04:32:43;;;;;;;2.55;1.00;;;;;;;8.70;100.00;101226.88;5053040;28;20543;-75
2024/02/04 04:35:12;;;;;;;1.30;1.10;;;;;;;8.63;100.00;101226.19;5036319;28;20461;-73
2024/02/04 04:37:43;;;;;;;;;;;;;;;8.65;100.00;101221.75;5029150;28;20470;-76
2024/02/04 04:40:16;;;;;;;1.33;1.00;;;;;;;8.61;100.00;101217.44;5027970;28;19924;-76
2024/02/04 04:42:44;;;;;;;0.95;0.90;;;;;;;8.69;100.00;101220.72;5042357;28;20044;-74
2024/02/04 04:45:15;;;;;;;0.82;0.82;;;;;;;8.73;100.00;101222.41;5048092;28;20049;-77
2024/02/04 04:47:44;;;;;;;0.80;0.80;;;;;;;8.76;100.00;101217.03;5033730;28;20099;-75
2024/02/04 04:50:16;;;;;;;1.38;0.98;;;;;;;8.70;100.00;101208.41;5030030;28;20048;-76
2024/02/04 04:52:45;;;;;;;3.75;0.90;;;;;;;8.76;100.00;101221.44;5044406;28;20114;-77
2024/02/04 04:55:14;;;;;;;3.47;0.93;;;;;;;8.75;100.00;101220.59;5046606;28;20041;-77
2024/02/04 04:57:42;;;;;;;0.80;0.80;;;;;;;8.73;100.00;101232.09;5021018;28;20088;-76
2024/02/04 05:00:13;;;;;;;1.50;0.98;;;;;;;8.69;100.00;101215.44;5043253;28;20055;-76
2024/02/04 05:02:43;;;;;;;1.20;0.88;;;;;;;8.74;100.00;101224.13;5028247;28;20056;-77
2024/02/04 05:05:14;;;;;;;1.97;0.70;;;;;;;8.81;100.00;101218.69;5047304;28;20052;-74
2024/02/04 05:07:46;;;;;;;0.93;0.70;;;;;;;8.83;100.00;101224.78;5016591;28;20540;-76
2024/02/04 05:10:16;;;;;;;0.73;0.68;;;;;;;8.78;100.00;101219.63;5040480;28;20534;-77
2024/02/04 05:12:44;;;;;;;0.82;0.60;;;;;;;8.78;100.00;101220.50;5016043;28;20037;-76
2024/02/04 05:15:12;;;;;;;0.75;0.65;;;;;;;8.76;100.00;101222.31;5028961;28;20045;-76
2024/02/04 05:17:47;;;;;;;1.75;0.68;;;;;;;8.77;100.00;101223.19;5032456;28;20037;-75
2024/02/04 05:20:17;;;;;;;1.42;0.60;;;;;;;8.72;100.00;101212.72;5028814;28;20049;-77
2024/02/04 05:22:45;;;;;;;0.60;0.60;;;;;;;8.80;100.00;101212.53;5032750;28;20037;-77
2024/02/04 05:25:14;;;;;;;0.90;0.52;;;;;;;8.83;100.00;101207.16;5028444;28;20048;-76
2024/02/04 05:27:42;;;;;;;1.10;0.60;;;;;;;8.89;100.00;101221.97;5019555;28;20055;-77
2024/02/04 05:30:12;;;;;;;2.05;0.30;;;;;;;8.90;100.00;101213.16;5046351;28;20147;-79
2024/02/04 05:32:40;;;;;;;0.75;0.50;;;;;;;8.88;100.00;101214.97;5027971;28;20141;-77
2024/02/04 05:35:13;;;;;;;0.95;0.50;;;;;;;8.81;100.00;101213.41;5046367;28;20055;-74
2024/02/04 05:37:44;;;;;;;0.77;0.40;;;;;;;8.90;100.00;101218.44;5033784;28;20032;-77
2024/02/04 05:40:15;;;;;;;2.03;0.45;;;;;;;8.79;100.00;101189.69;5026622;28;20045;-77
2024/02/04 05:42:44;;;;;;;0.40;0.40;;;;;;;8.90;100.00;101215.78;5039832;28;20055;-75
2024/02/04 05:45:13;;;;;;;0.50;0.50;;;;;;;8.89;100.00;101211.41;5029566;28;20449;-74
2024/02/04 05:47:42;;;;;;;2.83;0.60;;;;;;;8.89;100.00;101220.22;5035467;28;20049;-75
2024/02/04 05:50:12;;;;;;;0.40;0.40;;;;;;;8.87;100.00;101222.03;5033759;28;20055;-78
2024/02/04 05:52:41;;;;;;;1.38;0.43;;;;;;;8.85;100.00;101225.59;5009742;28;20090;-76
2024/02/04 05:55:11;;;;;;;0.35;0.30;;;;;;;8.81;100.00;101211.63;5011975;28;20635;-78
2024/02/04 05:57:39;;;;;;;0.70;0.50;;;;;;;8.83;100.00;101217.72;5018380;28;20037;-77
2024/02/04 06:00:10;;;;;;;1.58;0.45;;;;;;;8.82;100.00;101221.28;5048646;28;20072;-76
2024/02/04 06:02:39;;;;;;;1.35;0.30;;;;;;;8.76;100.00;101219.69;5024839;28;20052;-76
2024/02/04 06:05:09;;;;;;;1.35;0.30;;;;;;;8.80;100.00;101220.47;5022075;28;20096;-75
2024/02/04 06:07:39;;;;;;;1.38;0.32;;;;;;;8.76;100.00;101216.16;5027121;28;20160;-74
2024/02/04 06:10:10;;;;;;;1.08;0.32;;;;;;;8.79;100.00;101221.38;5029993;28;20042;-75
2024/02/04 06:12:40;;;;;;;0.40;0.30;;;;;;;8.85;100.00;101215.03;5011267;28;20045;-75
2024/02/04 06:15:13;;;;;;;1.55;0.50;;;;;;;8.77;100.00;101208.22;4990606;28;20501;-77
2024/02/04 06:17:42;;;;;;;0.30;0.30;;;;;;;8.72;100.00;101202.16;5037919;28;20049;-76
2024/02/04 06:20:12;;;;;;;0.63;0.30;;;;;;;8.79;100.00;101221.38;5020490;28;20048;-75
2024/02/04 06:22:41;;;;;;;1.03;0.20;;;;;;;8.71;100.00;101199.56;5028584;28;20045;-77
2024/02/04 06:25:11;;;;;;;1.23;0.22;;;;;;;8.84;100.00;101208.03;5031645;28;20464;-75
2024/02/04 06:27:40;;;;;;;0.20;0.20;;;;;;;8.72;100.00;101183.69;5031225;28;20041;-76
2024/02/04 06:30:08;;;;;;;3.53;0.30;;;;;;;8.76;100.00;101193.28;5021436;28;20045;-79
2024/02/04 06:32:38;;;;;;;0.83;0.30;;;;;;;8.83;100.00;101211.56;5017738;28;20049;-74
2024/02/04 06:35:07;;;;;;;1.95;0.20;;;;;;;8.75;100.00;101188.91;5022626;28;20128;-76
2024/02/04 06:37:38;;;;;;;0.52;0.32;;;;;;;8.91;100.00;101205.19;5025316;28;20046;-76
2024/02/04 06:40:09;;;;;;;;;;;;;;;8.94;100.00;101214.81;5026734;28;20064;-77
2024/02/04 06:42:38;;;;;;;0.28;0.28;;;;;;;8.93;100.00;101202.50;5007225;28;19939;-76
2024/02/04 06:45:06;;;;;;;1.10;0.28;;;;;;;8.93;100.00;101197.22;5022501;28;20076;-76
2024/02/04 06:47:37;;;;;;;0.80;0.30;;;;;;;8.96;100.00;101198.03;5017517;28;20056;-77
2024/02/04 06:50:08;;;;;;;0.20;0.20;;;;;;;8.96;100.00;101200.66;5013186;28;20045;-77
2024/02/04 06:52:39;;;;;;;0.50;0.30;;;;;;;8.79;100.00;101163.28;4994654;28;20080;-76
2024/02/04 06:55:09;;;;;;;0.70;0.28;;;;;;;8.90;100.00;101178.81;5000576;28;20527;-76
2024/02/04 06:57:41;;;;;;;0.20;0.20;;;;;;;8.96;100.00;101198.03;5005275;28;20049;-76
2024/02/04 07:00:11;;;;;;;0.30;0.30;;;;;;;8.94;100.00;101191.91;4992738;28;20060;-78
2024/02/04 07:02:41;;;;;;;1.50;0.30;;;;;;;8.94;100.00;101188.41;5039571;28;20053;-77
2024/02/04 07:05:11;;;;;;;0.40;0.40;;;;;;;8.89;100.00;101187.66;5015848;28;20052;-76
2024/02/04 07:07:44;;;;;;;0.68;0.30;;;;;;;8.95;100.00;101188.34;5025380;28;20124;-76
2024/02/04 07:10:13;;;;;;;2.28;0.40;;;;;;;9.00;100.00;101188.22;5025995;28;20045;-76
2024/02/04 07:12:43;;;;;;;0.40;0.40;;;;;;;9.05;100.00;101202.16;5020415;28;20067;-76
2024/02/04 07:15:14;;;;;;;0.57;0.30;;;;;;;9.01;100.00;101188.16;5025187;28;20581;-75
2024/02/04 07:17:50;;;;;;;0.70;0.35;;;;;;;9.02;100.00;101196.97;5027231;28;20040;-77
2024/02/04 07:20:21;;;;;;;0.30;0.30;;;;;;;9.04;100.00;101196.00;5020063;28;20045;-75
2024/02/04 07:22:50;;;;;;;0.50;0.30;;;;;;;9.03;100.00;101203.97;5022998;28;20103;-76
2024/02/04 07:25:20;;;;;;;1.75;0.40;;;;;;;9.00;100.00;101194.34;5030876;28;20110;-76
2024/02/04 07:27:48;;;;;;;0.80;0.50;;;;;;;8.98;100.00;101192.66;5044371;28;20046;-77
2024/02/04 07:30:20;;;;;;;1.02;0.25;;;;;;;9.02;100.00;101210.16;5046814;28;20087;-76
2024/02/04 07:32:48;;;;;;;0.20;0.20;;;;;;;9.05;100.00;101218.03;5040288;28;20415;-76
2024/02/04 07:35:17;;;;;;;0.93;0.30;;;;;;;9.05;100.00;101218.03;5037948;28;20048;-75
2024/02/04 07:37:45;;;;;;;1.55;0.30;;;;;;;9.08;100.00;101212.66;5015988;28;20068;-75
2024/02/04 07:40:13;;;;;;;0.30;0.30;;;;;;;9.14;100.00;101223.03;5030527;28;20050;-75
2024/02/04 07:42:42;;;;;;;0.30;0.30;;;;;;;8.97;100.00;101188.31;5023335;28;20045;-74
2024/02/04 07:45:11;;;;;;;0.30;0.30;;;;;;;9.14;100.00;101212.47;5026557;28;20124;-80
2024/02/04 07:47:41;;;;;;;1.63;0.40;;;;;;;9.13;100.00;101216.88;5043656;28;20069;-74
2024/02/04 07:50:11;;;;;;;0.35;0.30;;;;;;;9.07;100.00;101197.72;5027710;28;20580;-74
2024/02/04 07:52:39;;;;;;;1.00;0.30;;;;;;;9.15;100.00;101217.72;5016791;28;20068;-75
2024/02/04 07:55:12;;;;;;;0.73;0.40;;;;;;;9.12;100.00;101214.31;5047118;28;20112;-77
2024/02/04 07:57:46;;;;;;;0.30;0.30;;;;;;;9.19;100.00;101223.78;5024957;28;20061;-75
2024/02/04 08:00:15;;;;;;;0.22;0.22;;;;;;;9.20;100.00;101207.03;5045811;28;20049;-76
2024/02/04 08:02:45;;;;;;;0.33;0.33;;;;;;;9.27;100.00;101208.59;5024429;28;20041;-76
2024/02/04 08:05:14;;;;;;;0.30;0.30;;;;;;;9.31;100.00;101206.69;5023691;28;20460;-74
2024/02/04 08:07:45;;;;;;;0.45;0.40;;;;;;;9.30;100.00;101197.03;5028861;28;20110;-76
2024/02/04 08:10:15;;;;;;;0.88;0.30;;;;;;;9.30;100.00;101197.91;5010797;28;20053;-75
2024/02/04 08:12:50;;;;;;;0.45;0.30;;;;;;;9.27;100.00;101198.03;5022800;28;20102;-74
2024/02/04 08:15:25;;;;;;;0.57;0.40;;;;;;;9.21;100.00;101198.19;5044633;28;20045;-78
2024/02/04 08:17:53;;;;;;;1.63;0.40;;;;;;;9.19;100.00;101192.06;5029029;28;20490;-74
2024/02/04 08:20:23;;;;;;;0.63;0.40;;;;;;;9.25;100.00;101199.84;5021114;28;20053;-74
2024/02/04 08:22:54;;;;;;;0.40;0.40;;;;;;;9.29;100.00;101195.31;5008035;28;20364;-76
2024/02/04 08:25:22;;;;;;;0.40;0.40;;;;;;;9.28;100.00;101198.88;5015921;28;20139;-75
2024/02/04 08:27:52;;;;;;;0.32;0.32;;;;;;;9.19;100.00;101175.34;5028815;28;20045;-76
2024/02/04 08:30:21;;;;;;;0.75;0.50;;;;;;;9.29;100.00;101201.47;5026406;28;20041;-78
2024/02/04 08:32:50;;;;;;;0.57;0.40;;;;;;;9.34;100.00;101193.41;5040258;28;20045;-75
2024/02/04 08:35:18;;;;;;;1.30;0.68;;;;;;;9.44;100.00;101201.00;5032838;28;20045;-76
2024/02/04 08:37:46;;;;;;;0.75;0.40;;;;;;;9.55;100.00;101197.19;5013311;28;20610;-77
2024/02/04 08:40:14;;;;;;;2.83;0.50;;;;;;;9.49;100.00;101177.09;5008892;28;20050;-74
2024/02/04 08:42:44;;;;;;;0.60;0.60;;;;;;;9.64;100.00;101195.13;5027005;28;20034;-75
2024/02/04 08:45:16;;;;;;;0.63;0.40;;;;;;;9.78;100.00;101216.72;5034514;28;20116;-78
2024/02/04 08:47:46;;;;;;;1.38;0.65;;;;;;;9.72;100.00;101179.91;5033538;28;20045;-75
2024/02/04 08:50:18;;;;;;;1.60;0.50;;;;;;;9.83;100.00;101183.09;5031880;28;20076;-79
2024/02/04 08:52:49;;;;;;;0.57;0.45;;;;;;;9.84;100.00;101197.19;5034031;28;20402;-75
2024/02/04 08:55:17;;;;;;;1.33;0.50;;;;;;;9.72;100.00;101179.03;5046381;28;20095;-77
2024/02/04 08:57:47;;;;;;;2.15;0.50;;;;;;;9.84;100.00;101183.94;5028368;28;20047;-75
2024/02/04 09:00:21;;;;;;;0.77;0.50;;;;;;;9.94;100.00;101179.22;5040863;28;20059;-78
2024/02/04 09:02:49;;;;;;;0.43;0.43;;;;;;;9.90;100.00;101178.47;5046082;28;20076;-78
2024/02/04 09:05:18;;;;;;;0.60;0.40;;;;;;;9.78;100.00;101157.69;5017352;28;20053;-76
2024/02/04 09:07:46;;;;;;;0.45;0.40;;;;;;;9.99;100.00;101182.59;5029767;28;20044;-74
2024/02/04 09:10:14;;;;;;;1.17;0.30;;;;;;;9.93;100.00;101186.28;5027194;28;20033;-76
2024/02/04 09:12:42;;;;;;;0.30;0.30;;;;;;;9.88;100.00;101193.53;5039976;28;20037;-76
2024/02/04 09:15:12;;;;;;;0.77;0.50;;;;;;;9.78;100.00;101198.22;4995201;28;20062;-74
2024/02/04 09:17:41;;;;;;;0.25;0.25;;;;;;;9.83;100.00;101201.59;5020205;28;20079;-76
2024/02/04 09:20:10;;;;;;;0.63;0.30;;;;;;;9.73;100.00;101171.06;5016106;28;21179;-78
2024/02/04 09:22:41;;;;;;;1.23;0.47;;;;;;;9.75;100.00;101186.88;5056679;28;20029;-76
2024/02/04 09:25:12;;;;;;;0.85;0.40;;;;;;;9.68;100.00;101202.06;5028406;28;20045;-77
2024/02/04 09:27:40;;;;;;;1.45;0.30;;;;;;;9.67;100.00;101207.41;5058158;28;20049;-74
2024/02/04 09:30:11;;;;;;;1.77;0.40;;;;;;;9.73;100.00;101196.66;5061091;28;20052;-78
2024/02/04 09:32:41;;;;;;;0.43;0.43;;;;;;;9.77;100.00;101192.97;5035829;28;20041;-76
2024/02/04 09:35:10;;;;;;;0.30;0.30;;;;;;;9.79;100.00;101197.31;5004741;28;20107;-75
2024/02/04 09:37:39;;;;;;;0.80;0.40;;;;;;;9.68;100.00;101172.13;5037304;28;20540;-74
2024/02/04 09:40:08;;;;;;;0.32;0.30;;;;;;;9.86;100.00;101192.69;5031678;28;20060;-75
2024/02/04 09:42:37;;;;;;;0.60;0.60;;;;;;;10.01;100.00;101180.75;5038145;28;20128;-78
2024/02/04 09:45:09;;;;;;;0.65;0.47;;;;;;;10.06;100.00;101170.91;5048845;28;20159;-78
2024/02/04 09:47:40;;;;;;;1.15;0.55;;;;;;;10.00;100.00;101174.59;5023296;28;20458;-74
2024/02/04 09:50:14;;;;;;;1.45;0.45;;;;;;;10.08;100.00;101169.91;5029991;28;20044;-76
2024/02/04 09:52:51;;;;;;;2.75;0.60;;;;;;;9.99;100.00;101162.28;5008735;28;20059;-76
2024/02/04 09:55:22;;;;;;;0.95;0.50;;;;;;;9.95;100.00;101165.06;5021071;28;20075;-76
2024/02/04 09:57:50;;;;;;;0.57;0.32;;;;;;;9.97;100.00;101164.13;5004907;28;20113;-76
2024/02/04 10:00:20;;;;;;;0.52;0.43;;;;;;;10.01;100.00;101181.63;5018914;28;20498;-77
2024/02/04 10:02:49;;;;;;;0.50;0.30;;;;;;;9.95;100.00;101159.78;5003255;28;20104;-75
2024/02/04 10:05:20;;;;;;;0.38;0.38;;;;;;;9.98;100.00;101179.09;4990504;28;20523;-76
2024/02/04 10:07:48;;;;;;;0.65;0.43;;;;;;;9.97;100.00;101184.41;5023458;28;20128;-74
2024/02/04 10:10:17;;;;;;;0.63;0.40;;;;;;;10.03;100.00;101177.16;5029831;28;20041;-77
2024/02/04 10:12:48;;;;;;;1.20;0.50;;;;;;;10.03;100.00;101187.75;5028208;28;20521;-77
2024/02/04 10:15:17;;;;;;;1.40;0.50;;;;;;;9.96;100.00;101180.91;5023415;28;20087;-76
2024/02/04 10:17:46;;;;;;;3.05;1.20;;;;;;;10.00;100.00;101173.75;5010955;28;20037;-76
2024/02/04 10:20:15;;;;;;;1.85;0.55;;;;;;;10.12;100.00;101184.78;4995517;28;20038;-74
2024/02/04 10:22:49;;;;;;;0.30;0.30;;;;;;;10.06;100.00;101169.13;4991761;28;20065;-75
2024/02/04 10:25:21;;;;;;;0.30;0.30;;;;;;;10.22;100.00;101187.19;4985516;28;20145;-74
2024/02/04 10:27:50;;;;;;;1.13;0.50;;;;;;;10.19;100.00;101189.00;5006088;28;20058;-76
2024/02/04 10:30:21;;;;;;;1.33;0.40;;;;;;;10.27;100.00;101193.19;5001980;28;20125;-76
2024/02/04 10:32:51;;;;;;;1.27;0.40;;;;;;;10.33;100.00;101183.25;4990489;28;20491;-76
2024/02/04 10:35:24;;;;;;;0.45;0.40;;;;;;;10.33;100.00;101185.91;5005698;28;20042;-75
2024/02/04 10:38:01;;;;;;;0.47;0.47;;;;;;;10.28;100.00;101169.31;5009005;28;20120;-76
2024/02/04 10:40:30;;;;;;;0.63;0.40;;;;;;;10.24;100.00;101172.09;5001032;28;20048;-80
2024/02/04 10:43:04;;;;;;;1.48;0.70;;;;;;;10.45;100.00;101174.91;4992184;28;20104;-76
2024/02/04 10:45:41;;;;;;;1.15;0.60;;;;;;;10.48;100.00;101171.28;4984516;28;20042;-77
2024/02/04 10:48:13;;;;;;;0.70;0.50;;;;;;;10.54;100.00;101156.06;5001147;28;22286;-76
2024/02/04 10:50:50;;;;;;;0.73;0.57;;;;;;;10.43;100.00;101168.78;4994433;28;20049;-76
2024/02/04 10:53:23;;;;;;;1.55;0.55;;;;;;;9.98;100.00;101112.94;5008239;28;20049;-76
2024/02/04 10:55:58;;;;;;;0.70;0.50;;;;;;;10.16;100.00;101159.97;5019669;28;20113;-76
2024/02/04 10:58:29;;;;;;;1.15;0.40;;;;;;;10.18;100.00;101162.56;5025926;28;20129;-79
2024/02/04 11:00:57;;;;;;;0.60;0.50;;;;;;;10.11;100.00;101159.25;5010085;28;20049;-74
2024/02/04 11:03:29;;;;;;;0.77;0.60;;;;;;;10.04;100.00;101157.72;5022849;28;20038;-80
2024/02/04 11:06:00;;;;;;;0.70;0.70;;;;;;;9.92;100.00;101150.16;4996287;28;20054;-75
2024/02/04 11:08:33;;;;;;;1.00;0.50;;;;;;;9.88;100.00;101137.09;5005113;28;20058;-74
2024/02/04 11:11:01;;;;;;;0.50;0.50;;;;;;;10.03;100.00;101145.41;4988444;28;20195;-76
2024/02/04 11:13:32;;;;;;;1.05;0.70;;;;;;;10.09;100.00;101123.16;4995987;28;20094;-76
2024/02/04 11:16:05;;;;;;;2.05;0.57;;;;;;;10.07;100.00;101104.69;4998303;28;20059;-76
2024/02/04 11:18:51;;;;;;;0.95;0.50;;;;;;;10.45;100.00;101129.03;4978512;28;20092;-77
2024/02/04 11:21:54;;;;;;;0.50;0.50;;;;;;;10.60;100.00;101133.78;5004808;28;20707;-75
2024/02/04 11:24:42;;;;;;;0.65;0.60;;;;;;;10.65;100.00;101121.25;5004769;28;20069;-73
2024/02/04 11:27:15;;;;;;;0.60;0.60;;;;;;;10.75;100.00;101108.53;4990396;28;20386;-78
2024/02/04 11:29:46;;;;;;;1.15;0.65;;;;;;;10.70;100.00;101114.00;5000548;28;20113;-78
2024/02/04 11:32:18;;;;;;;0.80;0.80;;;;;;;10.66;100.00;101108.88;4990904;28;20050;-73
2024/02/04 11:34:46;;;;;;;1.10;1.00;;;;;;;10.59;100.00;101120.59;4997347;28;20045;-77
2024/02/04 11:37:19;;;;;;;0.82;0.80;;;;;;;10.55;100.00;101127.75;5026049;28;20058;-76
2024/02/04 11:40:09;;;;;;;1.30;1.20;;;;;;;10.44;100.00;101114.03;5026577;28;20458;-75